Terminal Aerodrome Forecast
Issued by NWS Cleveland, OH

Home | Current Version | Previous Version | Text Only | Print | Product List | Glossary Off
Versions: 1 2 3 4 5 6 7 8 9 10 11 12 13 14 15 16 17

000
FTUS41 KCLE 161012 AAA
TAFERI
TAF AMD
KERI 161012Z 1610/1706 22015G25KT P6SM VCSH OVC025
      TEMPO 1611/1615 2SM -SHRA OVC012
     FM161600 28020G30KT P6SM VCSH OVC012
     FM162300 30014G22KT P6SM OVC020=

USA.gov is the U.S. government's official web portal to all federal, state and local government web resources and services.